createdAt,value
2019-02-17T00:01:40.674Z,26.77
2019-02-17T00:04:08.083Z,27.83
2019-02-17T00:06:35.353Z,27.40
2019-02-17T00:09:04.092Z,28.53
2019-02-17T00:11:31.317Z,26.40
2019-02-17T00:13:58.599Z,26.63
2019-02-17T00:16:25.814Z,25.83
2019-02-17T00:18:53.054Z,25.53
2019-02-17T00:21:20.377Z,25.97
2019-02-17T00:23:47.616Z,25.03
2019-02-17T00:26:14.828Z,26.43
2019-02-17T00:28:42.084Z,26.93
2019-02-17T00:31:09.346Z,26.80
2019-02-17T00:33:36.592Z,27.13
2019-02-17T00:36:03.826Z,26.87
2019-02-17T00:38:31.031Z,25.87
2019-02-17T00:40:58.278Z,25.77
2019-02-17T00:43:25.493Z,26.03
2019-02-17T00:45:52.784Z,25.57
2019-02-17T00:48:20.028Z,27.90
2019-02-17T00:50:47.259Z,29.53
2019-02-17T00:53:14.547Z,29.73
2019-02-17T00:55:41.756Z,29.90
2019-02-17T00:58:09.079Z,30.13
2019-02-17T01:00:36.383Z,29.07
2019-02-17T01:03:04.016Z,27.50
2019-02-17T01:05:31.232Z,30.33
2019-02-17T01:07:58.516Z,29.90
2019-02-17T01:10:25.708Z,31.57
2019-02-17T01:12:52.915Z,31.60
2019-02-17T01:15:20.240Z,31.50
2019-02-17T01:17:47.447Z,28.77
2019-02-17T01:20:14.656Z,28.23
2019-02-17T01:22:41.977Z,29.97
2019-02-17T01:25:09.294Z,29.67
2019-02-17T01:27:36.540Z,28.00
2019-02-17T01:30:04.644Z,27.60
2019-02-17T01:32:31.872Z,27.07
2019-02-17T01:34:59.171Z,28.03
2019-02-17T01:37:26.386Z,27.30
2019-02-17T01:39:54.125Z,28.10
2019-02-17T01:42:21.395Z,27.27
2019-02-17T01:44:48.648Z,28.10
2019-02-17T01:47:15.916Z,28.00
2019-02-17T01:49:43.189Z,30.53
2019-02-17T01:52:10.451Z,30.20
2019-02-17T01:54:37.675Z,30.53
2019-02-17T01:57:04.914Z,29.27
2019-02-17T01:59:32.237Z,30.27
2019-02-17T02:01:59.474Z,29.07
2019-02-17T02:04:26.696Z,30.67
2019-02-17T02:06:53.941Z,31.43
2019-02-17T02:09:21.317Z,30.13
2019-02-17T02:11:48.556Z,29.63
2019-02-17T02:14:15.781Z,31.50
2019-02-17T02:16:43.012Z,29.97
2019-02-17T02:19:10.241Z,30.63
2019-02-17T02:21:37.506Z,28.40
2019-02-17T02:24:04.741Z,28.60
2019-02-17T02:26:31.955Z,29.50
2019-02-17T02:28:59.190Z,28.53
2019-02-17T02:31:26.463Z,28.80
2019-02-17T02:33:53.703Z,27.80
2019-02-17T02:36:20.923Z,27.50
2019-02-17T02:38:48.164Z,27.03
2019-02-17T02:41:15.387Z,27.00
2019-02-17T02:43:42.625Z,26.60
2019-02-17T02:46:09.905Z,27.23
2019-02-17T02:48:37.182Z,27.17
2019-02-17T02:51:04.395Z,27.20
2019-02-17T02:53:31.647Z,28.73
2019-02-17T02:55:58.874Z,27.37
2019-02-17T02:58:26.108Z,26.37
2019-02-17T03:00:53.375Z,28.33
2019-02-17T03:03:20.608Z,27.47
2019-02-17T03:06:16.180Z,28.53
2019-02-17T03:08:43.418Z,28.13
2019-02-17T03:11:10.672Z,29.77
2019-02-17T03:13:37.888Z,29.13
2019-02-17T03:16:05.209Z,30.40
2019-02-17T03:18:32.483Z,29.23
2019-02-17T03:20:59.686Z,32.53
2019-02-17T03:23:26.912Z,30.37
2019-02-17T03:25:54.187Z,29.43
2019-02-17T03:28:21.404Z,30.57
2019-02-17T03:30:48.645Z,26.43
2019-02-17T03:33:15.909Z,27.07
2019-02-17T03:35:43.125Z,26.23
2019-02-17T03:38:10.344Z,26.47
2019-02-17T03:40:37.799Z,25.67
2019-02-17T03:43:05.039Z,28.53
2019-02-17T03:45:32.293Z,28.00
2019-02-17T03:47:59.506Z,27.50
2019-02-17T03:50:26.728Z,27.57
2019-02-17T03:52:53.984Z,29.63
2019-02-17T03:55:21.225Z,29.63
2019-02-17T03:57:48.466Z,29.53
2019-02-17T04:00:17.263Z,27.40
2019-02-17T04:02:46.740Z,29.37
2019-02-17T04:05:14.121Z,31.67
2019-02-17T04:07:41.352Z,30.10
2019-02-17T04:10:08.582Z,28.97
2019-02-17T04:12:35.827Z,29.13
2019-02-17T04:15:03.088Z,27.03
2019-02-17T04:17:30.332Z,26.17
2019-02-17T04:19:57.568Z,26.30
2019-02-17T04:22:25.271Z,26.97
2019-02-17T04:24:52.801Z,29.60
2019-02-17T04:27:20.074Z,30.50
2019-02-17T04:29:47.286Z,29.40
2019-02-17T04:32:14.505Z,29.60
2019-02-17T04:34:42.153Z,28.23
2019-02-17T04:37:09.386Z,31.37
2019-02-17T04:39:36.599Z,30.97
2019-02-17T04:42:03.840Z,30.37
2019-02-17T04:44:31.053Z,31.40
2019-02-17T04:46:58.312Z,31.27
2019-02-17T04:49:25.537Z,32.20
2019-02-17T04:51:52.806Z,33.30
2019-02-17T04:54:20.082Z,34.60
2019-02-17T04:56:47.342Z,34.27
2019-02-17T04:59:14.565Z,33.97
2019-02-17T05:01:41.816Z,36.97
2019-02-17T05:04:09.036Z,34.43
2019-02-17T05:06:36.278Z,35.20
2019-02-17T05:09:05.149Z,36.30
2019-02-17T05:11:32.380Z,36.37
2019-02-17T05:13:59.588Z,42.67
2019-02-17T05:16:26.837Z,38.27
2019-02-17T05:18:54.118Z,38.00
2019-02-17T05:21:23.851Z,37.83
2019-02-17T05:23:51.061Z,39.20
2019-02-17T05:26:18.336Z,38.57
2019-02-17T05:28:45.573Z,38.17
2019-02-17T05:31:12.834Z,37.43
2019-02-17T05:33:40.074Z,38.43
2019-02-17T05:36:07.317Z,37.00
2019-02-17T05:38:34.539Z,36.90
2019-02-17T05:41:01.797Z,37.70
2019-02-17T05:43:29.022Z,39.33
2019-02-17T05:45:56.317Z,36.33
2019-02-17T05:48:23.902Z,35.50
2019-02-17T05:50:51.141Z,38.00
2019-02-17T05:53:18.402Z,38.40
2019-02-17T05:55:45.622Z,38.77
2019-02-17T05:58:12.876Z,36.27
2019-02-17T06:00:40.378Z,33.47
2019-02-17T06:03:07.606Z,34.33
2019-02-17T06:05:34.952Z,33.97
2019-02-17T06:08:02.182Z,37.10
2019-02-17T06:10:29.422Z,33.37
2019-02-17T06:12:56.651Z,33.57
2019-02-17T06:15:23.923Z,32.13
2019-02-17T06:17:51.155Z,33.13
2019-02-17T06:20:18.370Z,32.37
2019-02-17T06:22:45.673Z,30.37
2019-02-17T06:25:12.910Z,30.90
2019-02-17T06:27:40.316Z,32.10
2019-02-17T06:30:07.671Z,31.70
2019-02-17T06:32:34.888Z,31.27
2019-02-17T06:35:02.240Z,32.30
2019-02-17T06:37:29.465Z,33.73
2019-02-17T06:39:56.688Z,31.80
2019-02-17T06:42:23.962Z,30.93
2019-02-17T06:44:51.189Z,31.23
2019-02-17T06:47:22.650Z,32.70
2019-02-17T06:49:49.932Z,32.40
2019-02-17T06:52:17.155Z,30.00
2019-02-17T06:54:49.876Z,29.93
2019-02-17T06:57:23.921Z,29.33
2019-02-17T07:00:07.577Z,30.87
2019-02-17T07:02:34.865Z,30.27
2019-02-17T07:05:12.454Z,31.47
2019-02-17T07:07:40.497Z,29.20
2019-02-17T07:10:07.791Z,30.57
2019-02-17T07:12:35.015Z,32.17
2019-02-17T07:15:02.283Z,30.97
2019-02-17T07:17:29.504Z,31.47
2019-02-17T07:19:56.771Z,31.67
2019-02-17T07:22:23.995Z,30.93
2019-02-17T07:24:51.226Z,31.33
2019-02-17T07:27:18.497Z,30.20
2019-02-17T07:29:45.778Z,32.67
2019-02-17T07:32:12.999Z,32.60
2019-02-17T07:34:40.243Z,31.47
2019-02-17T07:37:07.515Z,32.83
2019-02-17T07:39:34.924Z,31.00
2019-02-17T07:42:02.206Z,30.63
2019-02-17T07:44:29.841Z,30.10
2019-02-17T07:46:57.061Z,28.60
2019-02-17T07:49:24.696Z,32.07
2019-02-17T07:51:51.909Z,33.53
2019-02-17T07:54:19.126Z,31.87
2019-02-17T07:56:48.424Z,28.63
2019-02-17T07:59:15.517Z,30.43
2019-02-17T08:01:45.318Z,30.67
2019-02-17T08:04:11.939Z,27.77
2019-02-17T08:06:39.190Z,32.80
2019-02-17T08:09:06.576Z,30.07
2019-02-17T08:11:33.827Z,28.77
2019-02-17T08:14:01.037Z,32.30
2019-02-17T08:16:28.329Z,31.20
2019-02-17T08:18:55.562Z,33.67
2019-02-17T08:21:22.864Z,30.20
2019-02-17T08:23:50.116Z,29.80
2019-02-17T08:26:17.690Z,29.07
2019-02-17T08:28:44.914Z,26.83
2019-02-17T08:31:12.189Z,27.90
2019-02-17T08:33:39.422Z,30.80
2019-02-17T08:36:06.657Z,29.97
2019-02-17T08:38:33.894Z,29.37
2019-02-17T08:41:01.128Z,30.27
2019-02-17T08:43:28.354Z,28.53
2019-02-17T08:45:55.966Z,26.60
2019-02-17T08:48:23.237Z,28.67
2019-02-17T08:50:50.530Z,27.27
2019-02-17T08:53:17.754Z,26.90
2019-02-17T08:55:44.976Z,24.97
2019-02-17T08:58:12.248Z,26.60
2019-02-17T09:00:39.511Z,28.30
2019-02-17T09:03:06.794Z,26.33
2019-02-17T09:05:43.588Z,26.60
2019-02-17T09:08:04.078Z,27.13
2019-02-17T09:10:31.422Z,26.87
2019-02-17T09:12:58.731Z,24.67
2019-02-17T09:15:26.311Z,26.67
2019-02-17T09:17:53.509Z,27.07
2019-02-17T09:20:20.817Z,26.17
2019-02-17T09:22:48.114Z,25.00
2019-02-17T09:25:15.344Z,28.10
2019-02-17T09:27:42.902Z,24.60
2019-02-17T09:30:12.557Z,26.17
2019-02-17T09:32:39.799Z,26.00
2019-02-17T09:35:07.099Z,26.27
2019-02-17T09:37:34.333Z,26.23
2019-02-17T09:40:01.567Z,25.43
2019-02-17T09:42:28.807Z,26.97
2019-02-17T09:44:56.029Z,26.87
2019-02-17T09:47:23.241Z,25.30
2019-02-17T09:49:50.501Z,25.67
2019-02-17T09:52:17.747Z,25.43
2019-02-17T09:54:45.026Z,23.10
2019-02-17T09:57:12.259Z,23.10
2019-02-17T09:59:39.503Z,22.33
2019-02-17T10:02:06.765Z,23.07
2019-02-17T10:04:33.987Z,22.40
2019-02-17T10:07:01.235Z,22.70
2019-02-17T10:09:28.545Z,23.67
2019-02-17T10:11:55.771Z,23.67
2019-02-17T10:14:23.023Z,21.90
2019-02-17T10:16:50.267Z,23.67
2019-02-17T10:19:17.528Z,22.77
2019-02-17T10:21:44.793Z,23.53
2019-02-17T10:24:12.027Z,23.13
2019-02-17T10:26:39.273Z,22.10
2019-02-17T10:29:06.502Z,22.23
2019-02-17T10:31:33.775Z,22.83
2019-02-17T10:34:00.994Z,21.27
2019-02-17T10:36:28.229Z,21.30
2019-02-17T10:38:55.473Z,20.37
2019-02-17T10:41:22.712Z,19.60
2019-02-17T10:43:49.967Z,19.83
2019-02-17T10:46:17.211Z,20.07
2019-02-17T10:48:56.461Z,20.20
2019-02-17T10:51:23.716Z,19.20
2019-02-17T10:53:51.040Z,18.67
2019-02-17T10:56:18.272Z,20.60
2019-02-17T10:58:45.571Z,19.93
2019-02-17T11:01:12.857Z,18.20
2019-02-17T11:03:48.632Z,19.87
2019-02-17T11:06:16.158Z,18.00
2019-02-17T11:08:43.382Z,18.17
2019-02-17T11:11:10.589Z,17.80
2019-02-17T11:13:38.087Z,18.67
2019-02-17T11:16:05.336Z,18.57
2019-02-17T11:18:32.884Z,17.63
2019-02-17T11:21:00.159Z,16.70
2019-02-17T11:23:27.521Z,18.20
2019-02-17T11:25:54.782Z,17.30
2019-02-17T11:28:22.027Z,17.73
2019-02-17T11:30:49.326Z,17.43
2019-02-17T11:33:16.546Z,19.33
2019-02-17T11:35:43.758Z,16.70
2019-02-17T11:38:11.023Z,16.70
2019-02-17T11:40:38.264Z,17.97
2019-02-17T11:43:05.539Z,16.27
2019-02-17T11:45:32.817Z,16.27
2019-02-17T11:48:00.122Z,17.57
2019-02-17T11:50:27.406Z,17.70
2019-02-17T11:52:54.642Z,16.37
2019-02-17T11:55:22.884Z,17.90
2019-02-17T11:57:50.278Z,16.97
2019-02-17T12:00:18.666Z,18.13
2019-02-17T12:02:45.976Z,16.67
2019-02-17T12:05:13.485Z,16.97
2019-02-17T12:07:40.948Z,17.00
2019-02-17T12:10:09.206Z,17.30
2019-02-17T12:12:36.499Z,18.37
2019-02-17T12:15:05.477Z,18.03
2019-02-17T12:17:32.682Z,17.13
2019-02-17T12:20:18.809Z,18.30
2019-02-17T12:22:50.063Z,16.67
2019-02-17T12:25:25.524Z,17.73
2019-02-17T12:28:00.683Z,17.20
2019-02-17T12:30:27.934Z,17.67
2019-02-17T12:32:55.193Z,17.47
2019-02-17T12:35:22.528Z,16.93
2019-02-17T12:37:49.761Z,15.93
2019-02-17T12:40:16.984Z,15.73
2019-02-17T12:42:44.279Z,15.97
2019-02-17T12:45:16.227Z,17.10
2019-02-17T12:47:42.564Z,16.40
2019-02-17T12:50:10.870Z,17.33
2019-02-17T12:52:46.788Z,15.50
2019-02-17T12:55:07.393Z,15.40
2019-02-17T12:57:34.605Z,16.20
2019-02-17T13:00:01.858Z,16.20
2019-02-17T13:02:29.127Z,16.90
2019-02-17T13:04:56.377Z,15.40
2019-02-17T13:07:23.665Z,15.90
2019-02-17T13:09:50.876Z,15.93
2019-02-17T13:12:18.127Z,15.43
2019-02-17T13:14:45.407Z,13.87
2019-02-17T13:17:12.621Z,13.43
2019-02-17T13:19:41.361Z,14.67
2019-02-17T13:22:08.774Z,14.77
2019-02-17T13:24:36.044Z,14.97
2019-02-17T13:27:03.344Z,13.77
2019-02-17T13:29:30.573Z,14.10
2019-02-17T13:31:57.783Z,14.37
2019-02-17T13:34:25.075Z,14.43
2019-02-17T13:36:52.294Z,14.20
2019-02-17T13:39:19.575Z,14.83
2019-02-17T13:41:47.045Z,14.77
2019-02-17T13:44:14.385Z,14.03
2019-02-17T13:46:41.614Z,13.00
2019-02-17T13:49:08.825Z,14.17
2019-02-17T13:51:36.079Z,14.47
2019-02-17T13:54:03.324Z,12.63
2019-02-17T13:56:30.648Z,12.47
2019-02-17T13:58:57.905Z,13.23
2019-02-17T14:01:25.204Z,13.27
2019-02-17T14:03:52.504Z,13.33
2019-02-17T14:06:19.711Z,12.27
2019-02-17T14:08:46.938Z,13.30
2019-02-17T14:11:14.206Z,13.20
2019-02-17T14:13:41.415Z,12.53
2019-02-17T14:16:08.684Z,13.47
2019-02-17T14:18:35.934Z,13.43
2019-02-17T14:21:03.224Z,13.33
2019-02-17T14:23:30.412Z,13.90
2019-02-17T14:25:57.674Z,11.83
2019-02-17T14:28:24.955Z,11.50
2019-02-17T14:30:52.203Z,12.37
2019-02-17T14:33:19.433Z,13.20
2019-02-17T14:35:46.687Z,13.67
2019-02-17T14:38:13.904Z,15.40
2019-02-17T14:40:41.165Z,13.77
2019-02-17T14:43:08.411Z,14.87
2019-02-17T14:45:35.683Z,13.03
2019-02-17T14:48:02.925Z,13.83
2019-02-17T14:50:30.151Z,12.17
2019-02-17T14:52:57.471Z,12.10
2019-02-17T14:55:24.698Z,12.20
2019-02-17T14:57:51.971Z,14.83
2019-02-17T15:00:19.243Z,11.60
2019-02-17T15:02:46.554Z,13.90
2019-02-17T15:05:13.903Z,14.13
2019-02-17T15:07:41.228Z,11.47
2019-02-17T15:10:08.939Z,13.13
2019-02-17T15:12:41.053Z,12.40
2019-02-17T15:15:08.826Z,11.30
2019-02-17T15:17:36.235Z,11.60
2019-02-17T15:20:03.930Z,11.73
2019-02-17T15:22:31.141Z,12.53
2019-02-17T15:24:58.403Z,12.00
2019-02-17T15:27:25.797Z,12.07
2019-02-17T15:29:53.117Z,12.27
2019-02-17T15:32:20.411Z,12.67
2019-02-17T15:34:47.700Z,13.77
2019-02-17T15:37:14.901Z,12.17
2019-02-17T15:39:42.202Z,12.50
2019-02-17T15:42:09.454Z,13.00
2019-02-17T15:44:36.700Z,13.07
2019-02-17T15:47:03.940Z,11.60
2019-02-17T15:49:31.180Z,12.70
2019-02-17T15:51:58.434Z,11.87
2019-02-17T15:54:25.723Z,12.13
2019-02-17T15:56:53.937Z,12.53
2019-02-17T15:59:23.325Z,11.87
2019-02-17T16:01:50.577Z,12.00
2019-02-17T16:04:17.814Z,12.23
2019-02-17T16:06:45.060Z,11.47
2019-02-17T16:09:12.280Z,11.40
2019-02-17T16:11:39.559Z,11.27
2019-02-17T16:14:06.773Z,11.03
2019-02-17T16:16:34.049Z,10.97
2019-02-17T16:19:01.278Z,10.30
2019-02-17T16:21:28.499Z,10.80
2019-02-17T16:23:55.752Z,12.33
2019-02-17T16:26:23.338Z,10.53
2019-02-17T16:28:50.587Z,10.40
2019-02-17T16:31:17.839Z,10.37
2019-02-17T16:33:45.081Z,10.33
2019-02-17T16:36:12.411Z,10.60
2019-02-17T16:38:39.644Z,11.53
2019-02-17T16:41:06.861Z,10.73
2019-02-17T16:43:34.120Z,10.57
2019-02-17T16:46:01.334Z,10.00
2019-02-17T16:48:28.574Z,11.97
2019-02-17T16:50:55.821Z,10.80
2019-02-17T16:53:23.079Z,12.67
2019-02-17T16:55:50.302Z,12.67
2019-02-17T16:58:17.529Z,12.97
2019-02-17T17:00:44.814Z,12.47
2019-02-17T17:03:12.140Z,12.63
2019-02-17T17:05:39.725Z,11.83
2019-02-17T17:08:07.398Z,10.73
2019-02-17T17:10:34.694Z,10.20
2019-02-17T17:13:01.912Z,11.03
2019-02-17T17:15:29.129Z,10.67
2019-02-17T17:17:56.390Z,11.50
2019-02-17T17:20:23.740Z,11.83
2019-02-17T17:22:51.034Z,11.00
2019-02-17T17:25:18.461Z,11.40
2019-02-17T17:27:46.205Z,11.83
2019-02-17T17:30:13.705Z,10.57
2019-02-17T17:32:41.014Z,10.77
2019-02-17T17:35:08.798Z,11.33
2019-02-17T17:37:38.818Z,11.40
2019-02-17T17:40:08.024Z,11.77
2019-02-17T17:42:35.277Z,11.50
2019-02-17T17:45:02.670Z,11.57
2019-02-17T17:47:29.928Z,11.80
2019-02-17T17:49:57.222Z,11.67
2019-02-17T17:52:24.521Z,11.30
2019-02-17T17:54:52.171Z,12.10
2019-02-17T17:57:19.462Z,12.03
2019-02-17T17:59:46.773Z,12.80
2019-02-17T18:02:14.031Z,11.33
2019-02-17T18:04:41.305Z,12.77
2019-02-17T18:07:08.628Z,12.60
2019-02-17T18:09:35.873Z,12.63
2019-02-17T18:12:03.143Z,13.37
2019-02-17T18:14:30.389Z,11.47
2019-02-17T18:16:57.607Z,11.60
2019-02-17T18:19:24.900Z,12.57
2019-02-17T18:21:52.408Z,11.97
2019-02-17T18:24:19.651Z,11.07
2019-02-17T18:26:47.216Z,11.13
2019-02-17T18:29:14.450Z,11.30
2019-02-17T18:31:41.701Z,11.27
2019-02-17T18:34:08.958Z,11.20
2019-02-17T18:36:36.220Z,10.33
2019-02-17T18:39:05.421Z,10.30
2019-02-17T18:41:32.664Z,12.10
2019-02-17T18:44:01.554Z,11.70
2019-02-17T18:46:28.781Z,11.13
2019-02-17T18:48:56.051Z,12.27
2019-02-17T18:51:23.307Z,12.67
2019-02-17T18:53:50.583Z,12.53
2019-02-17T18:56:17.797Z,11.70
2019-02-17T18:58:45.025Z,12.07
2019-02-17T19:01:12.301Z,12.77
2019-02-17T19:03:39.613Z,14.20
2019-02-17T19:06:06.835Z,11.97
2019-02-17T19:08:34.094Z,11.80
2019-02-17T19:11:01.396Z,11.93
2019-02-17T19:13:28.626Z,13.07
2019-02-17T19:15:55.853Z,12.23
2019-02-17T19:18:23.091Z,12.40
2019-02-17T19:20:50.343Z,12.30
2019-02-17T19:23:17.593Z,13.80
2019-02-17T19:25:44.836Z,14.53
2019-02-17T19:28:12.064Z,13.17
2019-02-17T19:30:39.362Z,12.63
2019-02-17T19:33:06.575Z,12.40
2019-02-17T19:35:41.560Z,13.07
2019-02-17T19:38:02.978Z,13.13
2019-02-17T19:40:30.207Z,13.73
2019-02-17T19:42:57.483Z,14.30
2019-02-17T19:45:24.697Z,13.00
2019-02-17T19:47:51.954Z,12.70
2019-02-17T19:50:19.214Z,12.93
2019-02-17T19:52:46.443Z,12.27
2019-02-17T19:55:13.807Z,13.80
2019-02-17T19:57:41.165Z,12.97
2019-02-17T20:00:10.717Z,12.83
2019-02-17T20:03:03.736Z,13.80
2019-02-17T20:05:35.243Z,13.00
2019-02-17T20:08:02.538Z,12.53
2019-02-17T20:10:29.789Z,12.47
2019-02-17T20:12:57.025Z,11.47
2019-02-17T20:15:26.928Z,12.93
2019-02-17T20:17:54.173Z,12.97
2019-02-17T20:20:21.413Z,13.87
2019-02-17T20:22:48.636Z,12.80
2019-02-17T20:25:15.887Z,13.67
2019-02-17T20:27:43.104Z,13.03
2019-02-17T20:30:10.496Z,13.80
2019-02-17T20:32:37.751Z,14.10
2019-02-17T20:35:05.117Z,12.57
2019-02-17T20:37:32.367Z,14.03
2019-02-17T20:39:59.580Z,14.43
2019-02-17T20:42:26.876Z,15.87
2019-02-17T20:44:54.125Z,16.17
2019-02-17T20:47:21.445Z,14.80
2019-02-17T20:49:48.743Z,14.07
2019-02-17T20:52:15.975Z,13.77
2019-02-17T20:54:43.208Z,15.07
2019-02-17T20:57:10.511Z,14.93
2019-02-17T20:59:37.749Z,14.40
2019-02-17T21:02:05.118Z,15.00
2019-02-17T21:04:32.676Z,13.90
2019-02-17T21:06:59.953Z,14.00
2019-02-17T21:09:27.249Z,14.40
2019-02-17T21:11:54.478Z,15.40
2019-02-17T21:14:21.772Z,15.47
2019-02-17T21:16:48.995Z,15.10
2019-02-17T21:19:16.216Z,16.93
2019-02-17T21:21:43.483Z,15.00
2019-02-17T21:24:12.462Z,16.13
2019-02-17T21:26:39.677Z,14.87
2019-02-17T21:29:06.951Z,16.17
2019-02-17T21:31:34.199Z,15.60
2019-02-17T21:34:01.439Z,16.93
2019-02-17T21:36:28.660Z,15.73
2019-02-17T21:38:55.911Z,15.27
2019-02-17T21:41:23.157Z,14.47
2019-02-17T21:43:50.356Z,16.63
2019-02-17T21:46:17.627Z,14.67
2019-02-17T21:48:45.241Z,14.37
2019-02-17T21:51:12.457Z,15.73
2019-02-17T21:53:39.712Z,15.03
2019-02-17T21:56:06.932Z,16.33
2019-02-17T21:58:34.150Z,15.50
2019-02-17T22:01:03.247Z,16.07
2019-02-17T22:03:30.683Z,16.50
2019-02-17T22:05:57.941Z,15.63
2019-02-17T22:08:25.318Z,15.23
2019-02-17T22:10:52.688Z,14.23
2019-02-17T22:13:19.942Z,14.83
2019-02-17T22:15:47.180Z,15.70
2019-02-17T22:18:14.392Z,16.80
2019-02-17T22:20:41.657Z,16.57
2019-02-17T22:23:08.878Z,15.00
2019-02-17T22:25:36.121Z,14.80
2019-02-17T22:28:03.809Z,15.90
2019-02-17T22:30:31.024Z,15.67
2019-02-17T22:32:58.230Z,14.43
2019-02-17T22:35:25.524Z,14.17
2019-02-17T22:37:52.781Z,13.73
2019-02-17T22:40:19.988Z,14.10
2019-02-17T22:42:47.240Z,15.83
2019-02-17T22:45:14.494Z,14.10
2019-02-17T22:47:41.710Z,15.20
2019-02-17T22:50:09.070Z,15.30
2019-02-17T22:52:36.314Z,14.93
2019-02-17T22:55:04.110Z,13.80
2019-02-17T22:57:31.352Z,15.10
2019-02-17T22:59:58.561Z,14.07
2019-02-17T23:02:25.873Z,14.80
2019-02-17T23:04:53.632Z,14.47
2019-02-17T23:07:20.975Z,15.73
2019-02-17T23:09:48.188Z,15.47
2019-02-17T23:12:15.509Z,15.20
2019-02-17T23:14:42.727Z,17.90
2019-02-17T23:17:09.980Z,15.23
2019-02-17T23:19:37.198Z,15.33
2019-02-17T23:22:04.528Z,14.63
2019-02-17T23:24:31.792Z,14.77
2019-02-17T23:26:59.049Z,14.93
2019-02-17T23:29:26.352Z,15.97
2019-02-17T23:31:53.592Z,15.43
2019-02-17T23:34:20.833Z,15.63
2019-02-17T23:36:48.099Z,15.17
2019-02-17T23:39:15.337Z,15.80
2019-02-17T23:41:42.557Z,14.40
2019-02-17T23:44:09.804Z,13.93
2019-02-17T23:46:37.012Z,15.13
2019-02-17T23:49:04.285Z,14.37
2019-02-17T23:51:31.503Z,14.27
2019-02-17T23:53:58.764Z,14.43
2019-02-17T23:56:25.983Z,13.77
2019-02-17T23:58:53.210Z,15.83
